createdAt,value
2022-10-18T00:02:37.839Z,21.46
2022-10-18T00:05:39.997Z,21.45
2022-10-18T00:08:42.317Z,21.43
2022-10-18T00:11:44.520Z,21.41
2022-10-18T00:14:50.330Z,21.38
2022-10-18T00:17:52.481Z,21.38
2022-10-18T00:21:05.762Z,21.38
2022-10-18T00:24:08.110Z,21.36
2022-10-18T00:27:10.318Z,21.35
2022-10-18T00:30:12.623Z,21.35
2022-10-18T00:33:14.766Z,21.34
2022-10-18T00:36:17.256Z,21.33
2022-10-18T00:39:21.186Z,21.33
2022-10-18T00:42:26.855Z,21.32
2022-10-18T00:45:29.086Z,21.31
2022-10-18T00:48:31.331Z,21.31
2022-10-18T00:51:41.465Z,21.31
2022-10-18T00:54:46.178Z,21.29
2022-10-18T00:57:49.350Z,21.27
2022-10-18T01:00:51.527Z,21.24
2022-10-18T01:03:54.918Z,21.24
2022-10-18T01:07:34.747Z,21.23
2022-10-18T01:10:49.518Z,21.20
2022-10-18T01:14:30.139Z,21.19
2022-10-18T01:17:55.104Z,21.19
2022-10-18T01:21:09.601Z,21.16
2022-10-18T01:24:47.212Z,21.14
2022-10-18T01:27:57.346Z,21.15
2022-10-18T01:31:23.541Z,21.13
2022-10-18T01:34:31.403Z,21.13
2022-10-18T01:37:37.597Z,21.12
2022-10-18T01:40:42.398Z,21.10
2022-10-18T01:43:49.273Z,21.09
2022-10-18T01:46:54.537Z,21.07
2022-10-18T01:49:59.999Z,21.08
2022-10-18T01:53:02.572Z,21.05
2022-10-18T01:56:25.425Z,21.04
2022-10-18T01:59:46.809Z,21.03
2022-10-18T02:03:07.049Z,21.03
2022-10-18T02:06:35.517Z,21.02
2022-10-18T02:09:46.155Z,21.01
2022-10-18T02:12:52.464Z,21.00
2022-10-18T02:15:59.918Z,20.98
2022-10-18T02:19:17.997Z,20.98
2022-10-18T02:22:24.098Z,20.97
2022-10-18T02:25:30.251Z,20.96
2022-10-18T02:28:32.504Z,20.96
2022-10-18T02:31:49.350Z,20.95
2022-10-18T02:35:06.456Z,20.93
2022-10-18T02:38:11.525Z,20.93
2022-10-18T02:41:22.847Z,20.91
2022-10-18T02:44:25.480Z,20.90
2022-10-18T02:47:27.643Z,20.89
2022-10-18T02:50:29.852Z,20.89
2022-10-18T02:53:31.993Z,20.87
2022-10-18T02:56:34.904Z,20.87
2022-10-18T02:59:37.080Z,20.84
2022-10-18T03:02:39.254Z,20.84
2022-10-18T03:05:41.413Z,20.83
2022-10-18T03:08:43.618Z,20.84
2022-10-18T03:11:45.786Z,20.83
2022-10-18T03:14:47.924Z,20.82
2022-10-18T03:17:50.077Z,20.80
2022-10-18T03:20:52.207Z,20.80
2022-10-18T03:23:54.411Z,20.78
2022-10-18T03:26:56.614Z,20.77
2022-10-18T03:29:59.864Z,20.77
2022-10-18T03:33:02.033Z,20.76
2022-10-18T03:36:04.330Z,20.72
2022-10-18T03:39:06.608Z,20.73
2022-10-18T03:42:08.945Z,20.72
2022-10-18T03:45:11.361Z,20.72
2022-10-18T03:48:13.558Z,20.68
2022-10-18T03:51:15.758Z,20.67
2022-10-18T03:54:18.013Z,20.66
2022-10-18T03:57:20.322Z,20.66
2022-10-18T04:00:22.840Z,20.65
2022-10-18T04:03:25.025Z,20.58
2022-10-18T04:06:27.202Z,20.62
2022-10-18T04:09:29.675Z,20.60
2022-10-18T04:12:32.151Z,20.59
2022-10-18T04:15:34.904Z,20.59
2022-10-18T04:18:37.175Z,20.57
2022-10-18T04:21:39.949Z,20.58
2022-10-18T04:24:42.152Z,20.56
2022-10-18T04:27:44.697Z,20.55
2022-10-18T04:30:53.473Z,20.55
2022-10-18T04:33:55.687Z,20.54
2022-10-18T04:36:57.929Z,20.51
2022-10-18T04:40:00.100Z,20.52
2022-10-18T04:43:02.244Z,20.51
2022-10-18T04:46:04.439Z,20.50
2022-10-18T04:49:06.664Z,20.49
2022-10-18T04:52:09.172Z,20.47
2022-10-18T04:55:11.387Z,20.46
2022-10-18T04:58:13.606Z,20.45
2022-10-18T05:01:17.210Z,20.42
2022-10-18T05:04:19.547Z,20.44
2022-10-18T05:07:21.890Z,20.43
2022-10-18T05:10:24.096Z,20.41
2022-10-18T05:13:26.550Z,20.41
2022-10-18T05:16:28.726Z,20.41
2022-10-18T05:19:30.942Z,20.40
2022-10-18T05:22:33.338Z,20.41
2022-10-18T05:25:43.954Z,20.43
2022-10-18T05:28:46.178Z,20.41
2022-10-18T05:31:49.091Z,20.40
2022-10-18T05:34:51.323Z,20.42
2022-10-18T05:37:53.539Z,20.43
2022-10-18T05:40:55.714Z,20.47
2022-10-18T05:43:58.013Z,20.56
2022-10-18T05:47:00.296Z,20.59
2022-10-18T05:50:02.472Z,20.78
2022-10-18T05:53:12.520Z,20.97
2022-10-18T05:56:20.715Z,21.15
2022-10-18T05:59:23.006Z,21.34
2022-10-18T06:02:26.199Z,21.48
2022-10-18T06:05:28.502Z,21.64
2022-10-18T06:08:30.900Z,21.76
2022-10-18T06:11:33.562Z,21.88
2022-10-18T06:14:37.308Z,21.95
2022-10-18T06:17:39.502Z,22.05
2022-10-18T06:20:41.691Z,22.11
2022-10-18T06:23:44.023Z,22.17
2022-10-18T06:26:46.268Z,22.19
2022-10-18T06:29:48.425Z,22.23
2022-10-18T06:32:50.594Z,22.28
2022-10-18T06:36:01.221Z,22.34
2022-10-18T06:39:03.448Z,22.39
2022-10-18T06:42:05.586Z,22.45
2022-10-18T06:45:10.043Z,22.51
2022-10-18T06:48:12.280Z,22.56
2022-10-18T06:51:15.366Z,22.62
2022-10-18T06:54:18.702Z,22.69
2022-10-18T06:57:21.780Z,22.71
2022-10-18T07:00:24.253Z,22.76
2022-10-18T07:03:27.286Z,22.81
2022-10-18T07:06:29.501Z,22.88
2022-10-18T07:09:31.678Z,22.92
2022-10-18T07:12:34.251Z,22.97
2022-10-18T07:15:38.602Z,23.01
2022-10-18T07:18:45.709Z,23.07
2022-10-18T07:21:47.941Z,23.11
2022-10-18T07:24:50.359Z,23.17
2022-10-18T07:27:53.110Z,23.20
2022-10-18T07:30:56.081Z,23.22
2022-10-18T07:33:58.269Z,23.24
2022-10-18T07:37:01.955Z,23.28
2022-10-18T07:40:04.494Z,23.29
2022-10-18T07:43:11.419Z,23.32
2022-10-18T07:46:15.815Z,23.36
2022-10-18T07:49:18.140Z,23.37
2022-10-18T07:52:20.316Z,23.38
2022-10-18T07:55:22.472Z,23.39
2022-10-18T07:58:24.726Z,23.40
2022-10-18T08:01:26.987Z,23.43
2022-10-18T08:04:29.230Z,23.50
2022-10-18T08:07:33.571Z,23.53
2022-10-18T08:10:36.371Z,23.58
2022-10-18T08:13:38.897Z,23.52
2022-10-18T08:16:41.085Z,23.43
2022-10-18T08:19:52.829Z,23.39
2022-10-18T08:23:05.533Z,23.40
2022-10-18T08:26:13.868Z,23.41
2022-10-18T08:29:23.259Z,23.47
2022-10-18T08:32:27.433Z,23.55
2022-10-18T08:35:29.622Z,23.62
2022-10-18T08:38:33.349Z,23.69
2022-10-18T08:41:41.489Z,23.73
2022-10-18T08:44:51.499Z,23.78
2022-10-18T08:47:57.292Z,23.81
2022-10-18T08:51:00.665Z,23.78
2022-10-18T08:54:07.580Z,23.76
2022-10-18T08:57:18.291Z,23.72
2022-10-18T09:00:22.920Z,23.69
2022-10-18T09:03:34.352Z,23.70
2022-10-18T09:06:51.541Z,23.71
2022-10-18T09:10:21.650Z,23.70
2022-10-18T09:14:01.334Z,23.73
2022-10-18T09:17:28.133Z,23.71
2022-10-18T09:20:54.674Z,23.68
2022-10-18T09:24:11.383Z,23.66
2022-10-18T09:27:19.050Z,23.66
2022-10-18T09:30:40.779Z,23.62
2022-10-18T09:33:46.323Z,23.58
2022-10-18T09:36:51.880Z,23.50
2022-10-18T09:40:02.954Z,23.45
2022-10-18T09:43:21.654Z,23.41
2022-10-18T09:46:30.408Z,23.38
2022-10-18T09:49:45.647Z,23.30
2022-10-18T09:53:07.749Z,23.22
2022-10-18T09:56:15.076Z,23.20
2022-10-18T09:59:35.255Z,23.17
2022-10-18T10:02:37.475Z,23.18
2022-10-18T10:05:39.673Z,23.19
2022-10-18T10:08:44.733Z,23.22
2022-10-18T10:11:49.552Z,23.44
2022-10-18T10:14:51.736Z,23.64
2022-10-18T10:17:57.088Z,23.76
2022-10-18T10:21:02.528Z,23.80
2022-10-18T10:24:04.898Z,23.82
2022-10-18T10:27:15.430Z,23.72
2022-10-18T10:30:33.667Z,23.73
2022-10-18T10:33:38.227Z,23.74
2022-10-18T10:36:49.271Z,23.63
2022-10-18T10:40:31.312Z,23.53
2022-10-18T10:43:39.410Z,23.46
2022-10-18T10:46:43.239Z,23.50
2022-10-18T10:49:48.934Z,23.52
2022-10-18T10:52:51.933Z,23.45
2022-10-18T10:55:56.302Z,23.43
2022-10-18T10:59:08.650Z,23.40
2022-10-18T11:02:21.350Z,23.37
2022-10-18T11:05:29.434Z,23.36
2022-10-18T11:08:36.166Z,23.37
2022-10-18T11:11:43.412Z,23.43
2022-10-18T11:14:50.524Z,23.45
2022-10-18T11:18:19.657Z,23.46
2022-10-18T11:21:29.241Z,23.52
2022-10-18T11:24:31.648Z,23.48
2022-10-18T11:27:57.541Z,23.51
2022-10-18T11:31:41.823Z,23.52
2022-10-18T11:35:02.665Z,23.52
2022-10-18T11:38:25.735Z,23.53
2022-10-18T11:41:36.945Z,23.44
2022-10-18T11:45:07.248Z,23.37
2022-10-18T11:48:50.687Z,23.38
2022-10-18T11:52:31.111Z,23.42
2022-10-18T11:55:39.298Z,23.44
2022-10-18T11:59:02.926Z,23.42
2022-10-18T12:02:17.282Z,23.36
2022-10-18T12:05:24.558Z,23.36
2022-10-18T12:08:42.457Z,23.42
2022-10-18T12:11:55.697Z,23.40
2022-10-18T12:15:16.790Z,23.43
2022-10-18T12:18:23.183Z,23.42
2022-10-18T12:21:29.330Z,23.36
2022-10-18T12:24:33.142Z,23.37
2022-10-18T12:27:44.263Z,23.37
2022-10-18T12:31:04.240Z,23.37
2022-10-18T12:34:28.239Z,23.38
2022-10-18T12:38:02.437Z,23.42
2022-10-18T12:41:05.811Z,23.37
2022-10-18T12:44:34.563Z,23.38
2022-10-18T12:47:36.833Z,23.37
2022-10-18T12:50:42.134Z,23.31
2022-10-18T12:53:55.041Z,23.30
2022-10-18T12:56:59.611Z,23.31
2022-10-18T13:00:01.821Z,23.33
2022-10-18T13:03:13.110Z,23.30
2022-10-18T13:06:15.318Z,23.29
2022-10-18T13:09:21.232Z,23.22
2022-10-18T13:12:23.325Z,23.13
2022-10-18T13:15:42.747Z,23.06
2022-10-18T13:19:10.890Z,23.04
2022-10-18T13:22:28.037Z,23.09
2022-10-18T13:26:11.459Z,23.16
2022-10-18T13:29:30.546Z,23.19
2022-10-18T13:32:36.666Z,23.21
2022-10-18T13:35:55.448Z,23.27
2022-10-18T13:39:02.143Z,23.31
2022-10-18T13:42:28.009Z,23.23
2022-10-18T13:45:33.277Z,23.26
2022-10-18T13:48:35.415Z,23.43
2022-10-18T13:51:43.342Z,23.63
2022-10-18T13:54:48.449Z,23.72
2022-10-18T13:58:24.341Z,23.77
2022-10-18T14:01:53.029Z,23.80
2022-10-18T14:05:25.353Z,23.81
2022-10-18T14:08:46.418Z,23.88
2022-10-18T14:11:52.676Z,23.97
2022-10-18T14:15:02.513Z,23.98
2022-10-18T14:18:31.817Z,23.91
2022-10-18T14:21:39.056Z,23.81
2022-10-18T14:24:46.712Z,23.70
2022-10-18T14:27:52.281Z,23.63
2022-10-18T14:31:06.384Z,23.56
2022-10-18T14:34:15.257Z,23.49
2022-10-18T14:37:36.906Z,23.46
2022-10-18T14:40:40.469Z,23.43
2022-10-18T14:43:44.290Z,23.38
2022-10-18T14:46:52.282Z,23.37
2022-10-18T14:49:54.909Z,23.35
2022-10-18T14:52:57.154Z,23.30
2022-10-18T14:56:00.948Z,23.29
2022-10-18T14:59:10.509Z,23.29
2022-10-18T15:02:16.067Z,23.25
2022-10-18T15:05:24.428Z,23.24
2022-10-18T15:08:32.959Z,23.22
2022-10-18T15:11:35.489Z,23.21
2022-10-18T15:14:37.981Z,23.19
2022-10-18T15:17:40.902Z,23.20
2022-10-18T15:20:43.429Z,23.21
2022-10-18T15:23:45.586Z,23.23
2022-10-18T15:26:49.875Z,23.24
2022-10-18T15:29:52.526Z,23.27
2022-10-18T15:33:01.874Z,23.28
2022-10-18T15:36:17.485Z,23.31
2022-10-18T15:39:23.600Z,23.34
2022-10-18T15:42:44.243Z,23.36
2022-10-18T15:49:18.210Z,23.41
2022-10-18T15:52:32.563Z,23.44
2022-10-18T15:55:46.449Z,23.46
2022-10-18T15:58:48.996Z,23.47
2022-10-18T16:01:51.603Z,23.48
2022-10-18T16:04:54.118Z,23.49
2022-10-18T16:07:56.290Z,23.50
2022-10-18T16:10:59.641Z,23.49
2022-10-18T16:14:01.873Z,23.48
2022-10-18T16:17:06.269Z,23.49
2022-10-18T16:20:20.177Z,23.52
2022-10-18T16:23:28.552Z,23.52
2022-10-18T16:26:31.248Z,23.56
2022-10-18T16:29:33.623Z,23.55
2022-10-18T16:32:35.774Z,23.54
2022-10-18T16:35:38.025Z,23.48
2022-10-18T16:38:40.300Z,23.50
2022-10-18T16:41:42.863Z,23.48
2022-10-18T16:44:45.436Z,23.47
2022-10-18T16:47:47.730Z,23.43
2022-10-18T16:50:50.725Z,23.41
2022-10-18T16:53:53.693Z,23.41
2022-10-18T16:56:55.920Z,23.39
2022-10-18T16:59:58.075Z,23.37
2022-10-18T17:03:00.217Z,23.34
2022-10-18T17:06:02.463Z,23.32
2022-10-18T17:09:04.670Z,23.31
2022-10-18T17:12:06.871Z,23.27
2022-10-18T17:15:09.781Z,23.23
2022-10-18T17:18:14.885Z,23.22
2022-10-18T17:21:19.638Z,23.18
2022-10-18T17:24:22.231Z,23.16
2022-10-18T17:27:24.545Z,23.13
2022-10-18T17:30:26.725Z,23.11
2022-10-18T17:33:28.969Z,23.08
2022-10-18T17:36:32.950Z,23.07
2022-10-18T17:39:35.784Z,23.04
2022-10-18T17:42:37.982Z,23.03
2022-10-18T17:45:48.143Z,23.01
2022-10-18T17:48:53.755Z,22.99
2022-10-18T17:51:55.971Z,22.98
2022-10-18T17:54:58.200Z,22.95
2022-10-18T17:58:00.478Z,22.93
2022-10-18T18:01:18.331Z,22.91
2022-10-18T18:04:20.601Z,22.88
2022-10-18T18:07:22.957Z,22.85
2022-10-18T18:10:25.267Z,22.83
2022-10-18T18:13:27.412Z,22.82
2022-10-18T18:16:30.061Z,22.77
2022-10-18T18:19:32.346Z,22.79
2022-10-18T18:22:36.862Z,22.77
2022-10-18T18:25:41.267Z,22.78
2022-10-18T18:28:43.784Z,22.71
2022-10-18T18:31:46.729Z,22.73
2022-10-18T18:34:48.896Z,22.68
2022-10-18T18:37:51.160Z,22.69
2022-10-18T18:41:23.650Z,22.67
2022-10-18T18:44:25.923Z,22.67
2022-10-18T18:47:28.075Z,22.65
2022-10-18T18:50:31.915Z,22.60
2022-10-18T18:53:34.182Z,22.60
2022-10-18T18:56:37.274Z,22.55
2022-10-18T18:59:39.446Z,22.54
2022-10-18T19:02:41.699Z,22.50
2022-10-18T19:05:44.015Z,22.49
2022-10-18T19:08:46.941Z,22.49
2022-10-18T19:11:54.840Z,22.48
2022-10-18T19:14:57.011Z,22.48
2022-10-18T19:17:59.146Z,22.46
2022-10-18T19:21:02.554Z,22.48
2022-10-18T19:24:05.657Z,22.51
2022-10-18T19:27:12.367Z,22.51
2022-10-18T19:30:14.580Z,22.55
2022-10-18T19:33:35.407Z,22.59
2022-10-18T19:36:45.985Z,22.65
2022-10-18T19:39:48.733Z,22.69
2022-10-18T19:42:50.893Z,22.74
2022-10-18T19:45:53.141Z,22.77
2022-10-18T19:48:55.416Z,22.82
2022-10-18T19:51:57.780Z,22.87
2022-10-18T19:55:00.000Z,22.90
2022-10-18T19:58:02.233Z,22.92
2022-10-18T20:01:04.532Z,22.97
2022-10-18T20:04:08.395Z,22.98
2022-10-18T20:07:10.629Z,23.00
2022-10-18T20:10:15.799Z,23.01
2022-10-18T20:13:18.317Z,23.02
2022-10-18T20:16:27.920Z,23.01
2022-10-18T20:19:30.804Z,23.00
2022-10-18T20:22:33.225Z,23.01
2022-10-18T20:25:35.591Z,23.01
2022-10-18T20:28:38.665Z,23.00
2022-10-18T20:31:40.884Z,22.98
2022-10-18T20:34:43.062Z,22.96
2022-10-18T20:37:45.358Z,22.93
2022-10-18T20:40:47.605Z,22.93
2022-10-18T20:44:11.576Z,22.90
2022-10-18T20:47:13.764Z,22.89
2022-10-18T20:50:16.078Z,22.87
2022-10-18T20:56:22.365Z,22.84
2022-10-18T20:59:24.596Z,22.82
2022-10-18T21:02:27.491Z,22.79
2022-10-18T21:05:30.792Z,22.77
2022-10-18T21:08:32.983Z,22.75
2022-10-18T21:11:46.096Z,22.72
2022-10-18T21:14:48.529Z,22.69
2022-10-18T21:17:51.561Z,22.67
2022-10-18T21:20:54.214Z,22.65
2022-10-18T21:23:56.473Z,22.64
2022-10-18T21:27:00.309Z,22.62
2022-10-18T21:30:03.563Z,22.59
2022-10-18T21:33:07.193Z,22.58
2022-10-18T21:36:10.178Z,22.56
2022-10-18T21:39:15.372Z,22.51
2022-10-18T21:42:17.643Z,22.48
2022-10-18T21:45:19.816Z,22.45
2022-10-18T21:51:29.270Z,22.43
2022-10-18T21:54:31.511Z,22.42
2022-10-18T22:00:42.036Z,22.40
2022-10-18T22:03:45.410Z,22.38
2022-10-18T22:06:48.063Z,22.37
2022-10-18T22:09:50.261Z,22.32
2022-10-18T22:12:52.491Z,22.35
2022-10-18T22:15:54.961Z,22.34
2022-10-18T22:18:59.823Z,22.33
2022-10-18T22:22:02.021Z,22.31
2022-10-18T22:25:05.211Z,22.29
2022-10-18T22:28:07.400Z,22.24
2022-10-18T22:31:21.504Z,22.24
2022-10-18T22:34:28.933Z,22.23
2022-10-18T22:37:31.410Z,22.17
2022-10-18T22:40:33.886Z,22.15
2022-10-18T22:43:36.637Z,22.17
2022-10-18T22:46:39.929Z,22.15
2022-10-18T22:49:42.129Z,22.15
2022-10-18T22:52:44.306Z,22.17
2022-10-18T22:55:48.318Z,22.14
2022-10-18T22:58:52.852Z,22.13
2022-10-18T23:01:55.026Z,22.15
2022-10-18T23:04:57.188Z,22.14
2022-10-18T23:07:59.364Z,22.16
2022-10-18T23:11:01.536Z,22.16
2022-10-18T23:14:05.991Z,22.18
2022-10-18T23:17:08.177Z,22.23
2022-10-18T23:20:10.567Z,22.28
2022-10-18T23:23:15.657Z,22.34
2022-10-18T23:26:20.516Z,22.40
2022-10-18T23:29:22.673Z,22.44
2022-10-18T23:32:25.101Z,22.50
2022-10-18T23:35:27.319Z,22.58
2022-10-18T23:38:30.877Z,22.62
2022-10-18T23:41:33.125Z,22.67
2022-10-18T23:44:35.277Z,22.71
2022-10-18T23:47:37.432Z,22.73
2022-10-18T23:50:39.677Z,22.74
2022-10-18T23:53:42.543Z,22.75
2022-10-18T23:56:44.749Z,22.76
2022-10-18T23:59:46.895Z,22.76
